createdAt,value
2023-04-23T00:01:10.913Z,65.18
2023-04-23T00:03:41.624Z,65.00
2023-04-23T00:06:11.345Z,65.32
2023-04-23T00:08:41.451Z,65.42
2023-04-23T00:11:10.283Z,65.37
2023-04-23T00:13:39.150Z,65.21
2023-04-23T00:16:08.027Z,65.38
2023-04-23T00:18:36.012Z,64.97
2023-04-23T00:21:04.170Z,65.95
2023-04-23T00:23:32.354Z,65.69
2023-04-23T00:26:00.439Z,65.15
2023-04-23T00:28:28.384Z,65.04
2023-04-23T00:30:56.461Z,65.53
2023-04-23T00:33:25.661Z,65.69
2023-04-23T00:35:53.726Z,65.37
2023-04-23T00:38:21.800Z,65.87
2023-04-23T00:40:50.476Z,67.28
2023-04-23T00:43:19.578Z,67.31
2023-04-23T00:45:48.408Z,67.36
2023-04-23T00:48:17.579Z,67.53
2023-04-23T00:50:46.618Z,67.54
2023-04-23T00:53:14.875Z,67.61
2023-04-23T00:55:43.007Z,67.83
2023-04-23T00:58:11.299Z,68.06
2023-04-23T01:00:46.514Z,67.89
2023-04-23T01:03:18.575Z,68.13
2023-04-23T01:05:48.089Z,68.40
2023-04-23T01:08:17.633Z,67.77
2023-04-23T01:10:47.476Z,67.96
2023-04-23T01:13:16.304Z,67.72
2023-04-23T01:15:45.462Z,67.57
2023-04-23T01:18:16.238Z,67.92
2023-04-23T01:20:44.336Z,68.21
2023-04-23T01:23:12.999Z,68.52
2023-04-23T01:25:41.298Z,68.70
2023-04-23T01:28:09.954Z,68.82
2023-04-23T01:30:39.285Z,68.55
2023-04-23T01:33:08.646Z,68.51
2023-04-23T01:35:37.360Z,68.06
2023-04-23T01:38:07.744Z,67.71
2023-04-23T01:40:35.845Z,67.79
2023-04-23T01:43:05.126Z,67.76
2023-04-23T01:45:33.607Z,67.89
2023-04-23T01:48:01.828Z,68.02
2023-04-23T01:50:31.177Z,67.81
2023-04-23T01:52:59.245Z,67.45
2023-04-23T01:55:27.623Z,67.29
2023-04-23T01:57:56.207Z,67.18
2023-04-23T02:00:24.291Z,67.08
2023-04-23T02:02:55.444Z,67.40
2023-04-23T02:05:25.705Z,67.72
2023-04-23T02:07:53.751Z,67.79
2023-04-23T02:10:21.991Z,67.65
2023-04-23T02:12:50.975Z,67.90
2023-04-23T02:15:21.544Z,67.49
2023-04-23T02:17:52.329Z,67.95
2023-04-23T02:20:25.351Z,68.21
2023-04-23T02:22:53.499Z,68.20
2023-04-23T02:25:22.092Z,67.83
2023-04-23T02:27:50.885Z,67.74
2023-04-23T02:30:19.103Z,67.77
2023-04-23T02:32:47.296Z,68.11
2023-04-23T02:35:15.487Z,68.56
2023-04-23T02:37:43.480Z,68.99
2023-04-23T02:40:12.138Z,68.94
2023-04-23T02:42:41.886Z,69.06
2023-04-23T02:45:12.303Z,69.18
2023-04-23T02:47:40.605Z,69.16
2023-04-23T02:50:09.037Z,70.27
2023-04-23T02:52:37.433Z,69.93
2023-04-23T02:55:07.298Z,70.70
2023-04-23T02:57:35.913Z,70.14
2023-04-23T03:00:07.214Z,69.75
2023-04-23T03:02:39.727Z,69.54
2023-04-23T03:05:08.720Z,69.50
2023-04-23T03:07:36.847Z,69.45
2023-04-23T03:10:05.776Z,69.82
2023-04-23T03:12:34.671Z,69.81
2023-04-23T03:15:03.286Z,69.32
2023-04-23T03:17:32.158Z,69.61
2023-04-23T03:20:00.220Z,69.94
2023-04-23T03:22:28.301Z,69.30
2023-04-23T03:24:56.932Z,69.15
2023-04-23T03:27:25.250Z,69.16
2023-04-23T03:29:53.529Z,69.17
2023-04-23T03:32:21.634Z,69.20
2023-04-23T03:34:49.865Z,69.00
2023-04-23T03:37:18.255Z,68.93
2023-04-23T03:39:46.978Z,68.79
2023-04-23T03:42:15.182Z,68.67
2023-04-23T03:44:44.001Z,68.32
2023-04-23T03:47:11.922Z,67.93
2023-04-23T03:49:40.753Z,67.75
2023-04-23T03:52:10.353Z,67.59
2023-04-23T03:54:41.810Z,67.42
2023-04-23T03:57:17.151Z,67.52
2023-04-23T04:00:08.321Z,67.67
2023-04-23T04:02:41.627Z,67.91
2023-04-23T04:05:11.512Z,68.19
2023-04-23T04:07:41.203Z,67.73
2023-04-23T04:10:09.887Z,67.77
2023-04-23T04:12:39.940Z,67.33
2023-04-23T04:15:11.382Z,66.25
2023-04-23T04:17:39.957Z,65.98
2023-04-23T04:20:09.425Z,65.99
2023-04-23T04:22:37.795Z,65.74
2023-04-23T04:25:06.995Z,65.60
2023-04-23T04:27:35.679Z,65.62
2023-04-23T04:30:05.708Z,65.73
2023-04-23T04:32:34.494Z,66.02
2023-04-23T04:35:02.874Z,65.92
2023-04-23T04:37:32.263Z,65.68
2023-04-23T04:40:01.656Z,65.50
2023-04-23T04:42:29.755Z,65.43
2023-04-23T04:44:59.631Z,65.53
2023-04-23T04:47:27.832Z,65.43
2023-04-23T04:49:57.726Z,65.33
2023-04-23T04:52:25.973Z,65.76
2023-04-23T04:54:54.395Z,66.15
2023-04-23T04:57:23.189Z,66.60
2023-04-23T04:59:51.647Z,66.81
2023-04-23T05:02:21.738Z,66.84
2023-04-23T05:04:50.255Z,66.58
2023-04-23T05:07:18.334Z,67.01
2023-04-23T05:09:46.285Z,67.05
2023-04-23T05:12:14.258Z,66.83
2023-04-23T05:14:42.551Z,66.85
2023-04-23T05:17:11.768Z,66.90
2023-04-23T05:19:39.791Z,67.20
2023-04-23T05:22:08.078Z,67.08
2023-04-23T05:24:36.210Z,67.14
2023-04-23T05:27:06.472Z,67.14
2023-04-23T05:29:34.636Z,67.38
2023-04-23T05:32:02.754Z,67.57
2023-04-23T05:34:30.730Z,67.79
2023-04-23T05:36:58.733Z,67.67
2023-04-23T05:39:27.025Z,67.69
2023-04-23T05:41:55.044Z,67.39
2023-04-23T05:44:23.062Z,67.59
2023-04-23T05:46:50.980Z,67.89
2023-04-23T05:49:19.002Z,67.23
2023-04-23T05:51:47.176Z,66.71
2023-04-23T05:54:15.238Z,65.89
2023-04-23T05:56:43.200Z,65.71
2023-04-23T05:59:11.553Z,65.46
2023-04-23T06:01:39.652Z,64.92
2023-04-23T06:04:08.546Z,64.68
2023-04-23T06:06:36.924Z,64.69
2023-04-23T06:09:04.948Z,63.91
2023-04-23T06:11:33.507Z,63.41
2023-04-23T06:14:04.991Z,62.94
2023-04-23T06:16:33.027Z,62.69
2023-04-23T06:19:01.264Z,62.27
2023-04-23T06:21:29.260Z,62.35
2023-04-23T06:23:57.416Z,62.32
2023-04-23T06:26:25.774Z,62.12
2023-04-23T06:28:55.269Z,62.26
2023-04-23T06:31:43.699Z,62.45
2023-04-23T06:34:11.900Z,62.66
2023-04-23T06:36:40.172Z,62.78
2023-04-23T06:39:08.743Z,62.60
2023-04-23T06:41:36.702Z,62.60
2023-04-23T06:44:11.366Z,62.65
2023-04-23T06:46:49.411Z,62.54
2023-04-23T06:49:17.971Z,62.42
2023-04-23T06:51:46.225Z,62.15
2023-04-23T06:54:14.245Z,62.17
2023-04-23T06:56:42.181Z,61.83
2023-04-23T06:59:10.216Z,61.63
2023-04-23T07:01:45.351Z,61.25
2023-04-23T07:04:13.479Z,60.95
2023-04-23T07:06:41.503Z,61.23
2023-04-23T07:09:09.873Z,61.21
2023-04-23T07:11:37.972Z,60.75
2023-04-23T07:14:06.645Z,60.39
2023-04-23T07:16:35.262Z,60.29
2023-04-23T07:19:03.435Z,60.35
2023-04-23T07:21:33.266Z,59.97
2023-04-23T07:24:07.328Z,59.65
2023-04-23T07:26:36.023Z,59.49
2023-04-23T07:29:06.777Z,59.49
2023-04-23T07:31:35.544Z,59.00
2023-04-23T07:34:04.266Z,58.76
2023-04-23T07:36:32.617Z,58.00
2023-04-23T07:39:00.671Z,58.26
2023-04-23T07:41:28.857Z,58.23
2023-04-23T07:43:57.370Z,57.82
2023-04-23T07:46:25.659Z,57.71
2023-04-23T07:48:53.876Z,57.68
2023-04-23T07:51:26.666Z,56.97
2023-04-23T07:53:54.828Z,56.77
2023-04-23T07:56:24.803Z,56.69
2023-04-23T07:58:54.271Z,56.66
2023-04-23T08:01:22.414Z,56.53
2023-04-23T08:03:50.477Z,56.34
2023-04-23T08:06:18.802Z,56.50
2023-04-23T08:08:46.805Z,56.79
2023-04-23T08:11:14.803Z,56.42
2023-04-23T08:13:42.925Z,56.18
2023-04-23T08:16:11.120Z,55.00
2023-04-23T08:18:39.842Z,54.99
2023-04-23T08:21:08.356Z,54.66
2023-04-23T08:23:36.585Z,54.49
2023-04-23T08:26:04.761Z,54.74
2023-04-23T08:28:32.710Z,55.02
2023-04-23T08:31:01.888Z,54.67
2023-04-23T08:33:30.849Z,54.11
2023-04-23T08:35:58.745Z,53.67
2023-04-23T08:38:26.909Z,52.97
2023-04-23T08:40:58.070Z,52.89
2023-04-23T08:43:37.452Z,51.86
2023-04-23T08:46:05.864Z,51.17
2023-04-23T08:48:35.549Z,50.43
2023-04-23T08:51:05.732Z,50.36
2023-04-23T08:53:33.969Z,49.84
2023-04-23T08:56:03.944Z,49.30
2023-04-23T08:58:33.236Z,49.25
2023-04-23T09:01:02.034Z,48.93
2023-04-23T09:03:30.581Z,47.55
2023-04-23T09:05:59.287Z,46.24
2023-04-23T09:08:27.369Z,44.74
2023-04-23T09:11:01.557Z,43.57
2023-04-23T09:13:34.040Z,43.73
2023-04-23T09:16:02.226Z,43.91
2023-04-23T09:18:30.703Z,42.98
2023-04-23T09:21:01.435Z,43.63
2023-04-23T09:23:29.396Z,43.68
2023-04-23T09:25:57.776Z,43.29
2023-04-23T09:28:38.464Z,42.79
2023-04-23T09:31:07.025Z,41.76
2023-04-23T09:33:37.252Z,41.01
2023-04-23T09:36:10.997Z,41.85
2023-04-23T09:38:41.584Z,42.17
2023-04-23T09:41:22.960Z,42.90
2023-04-23T09:43:56.365Z,42.01
2023-04-23T09:46:43.079Z,42.68
2023-04-23T09:49:12.797Z,43.32
2023-04-23T09:51:43.231Z,43.23
2023-04-23T09:54:21.878Z,43.01
2023-04-23T09:56:53.948Z,43.21
2023-04-23T09:59:39.549Z,41.83
2023-04-23T10:02:15.484Z,41.79
2023-04-23T10:04:44.181Z,42.46
2023-04-23T10:07:20.105Z,42.10
2023-04-23T10:09:48.734Z,41.04
2023-04-23T10:14:51.022Z,39.37
2023-04-23T10:17:19.186Z,40.19
2023-04-23T10:19:50.128Z,40.24
2023-04-23T10:22:20.916Z,39.63
2023-04-23T10:24:56.533Z,38.44
2023-04-23T10:27:44.700Z,35.91
2023-04-23T10:30:19.098Z,35.91
2023-04-23T10:32:48.887Z,33.88
2023-04-23T10:35:17.831Z,29.98
2023-04-23T10:37:48.421Z,28.77
2023-04-23T10:40:24.685Z,28.84
2023-04-23T10:42:53.766Z,27.52
2023-04-23T10:45:25.416Z,26.94
2023-04-23T10:47:58.180Z,26.50
2023-04-23T10:50:28.757Z,27.08
2023-04-23T10:52:58.345Z,26.52
2023-04-23T10:55:28.889Z,25.74
2023-04-23T10:58:00.879Z,25.60
2023-04-23T11:00:31.262Z,25.19
2023-04-23T11:02:59.699Z,24.10
2023-04-23T11:05:29.406Z,23.95
2023-04-23T11:08:11.033Z,23.97
2023-04-23T11:10:59.376Z,24.20
2023-04-23T11:13:28.428Z,24.09
2023-04-23T11:16:18.876Z,24.13
2023-04-23T11:18:59.343Z,25.02
2023-04-23T11:21:46.613Z,24.69
2023-04-23T11:24:15.550Z,23.70
2023-04-23T11:26:44.025Z,23.94
2023-04-23T11:29:14.554Z,24.77
2023-04-23T11:31:54.726Z,25.44
2023-04-23T11:34:30.247Z,26.13
2023-04-23T11:37:05.069Z,26.07
2023-04-23T11:39:33.663Z,26.48
2023-04-23T11:42:03.606Z,27.00
2023-04-23T11:44:32.283Z,26.93
2023-04-23T11:47:02.408Z,26.84
2023-04-23T11:49:31.846Z,27.17
2023-04-23T11:52:02.178Z,27.51
2023-04-23T11:54:30.818Z,27.79
2023-04-23T11:57:00.251Z,27.67
2023-04-23T11:59:34.096Z,27.30
2023-04-23T12:02:06.319Z,27.66
2023-04-23T12:04:40.953Z,29.04
2023-04-23T12:07:19.659Z,31.34
2023-04-23T12:09:58.773Z,32.47
2023-04-23T12:12:33.166Z,33.55
2023-04-23T12:15:05.428Z,34.01
2023-04-23T12:17:34.029Z,33.71
2023-04-23T12:20:07.521Z,33.59
2023-04-23T12:22:35.773Z,33.54
2023-04-23T12:25:08.061Z,33.96
2023-04-23T12:27:44.278Z,33.64
2023-04-23T12:30:12.440Z,33.36
2023-04-23T12:32:41.391Z,33.64
2023-04-23T12:35:11.330Z,33.67
2023-04-23T12:37:39.337Z,33.31
2023-04-23T12:40:07.454Z,32.49
2023-04-23T12:42:36.839Z,32.61
2023-04-23T12:45:07.433Z,32.54
2023-04-23T12:47:35.591Z,32.80
2023-04-23T12:50:05.732Z,32.65
2023-04-23T12:52:33.938Z,31.24
2023-04-23T12:55:01.792Z,31.64
2023-04-23T12:57:29.660Z,31.87
2023-04-23T12:59:57.890Z,31.46
2023-04-23T13:02:26.349Z,31.07
2023-04-23T13:04:59.827Z,30.73
2023-04-23T13:07:28.226Z,30.47
2023-04-23T13:09:57.367Z,30.63
2023-04-23T13:12:25.470Z,30.86
2023-04-23T13:14:53.850Z,30.89
2023-04-23T13:17:22.212Z,30.02
2023-04-23T13:19:50.380Z,29.41
2023-04-23T13:22:18.199Z,28.73
2023-04-23T13:24:46.126Z,28.51
2023-04-23T13:27:14.499Z,28.75
2023-04-23T13:29:42.869Z,28.84
2023-04-23T13:32:11.369Z,29.06
2023-04-23T13:34:39.529Z,29.00
2023-04-23T13:37:09.471Z,28.84
2023-04-23T13:39:39.992Z,28.40
2023-04-23T13:42:10.291Z,27.75
2023-04-23T13:44:38.585Z,27.79
2023-04-23T13:47:06.750Z,27.82
2023-04-23T13:49:34.711Z,27.08
2023-04-23T13:52:06.759Z,26.87
2023-04-23T13:54:36.007Z,25.16
2023-04-23T13:57:04.247Z,25.26
2023-04-23T13:59:32.329Z,26.33
2023-04-23T14:02:00.295Z,26.47
2023-04-23T14:04:28.532Z,26.63
2023-04-23T14:06:56.650Z,27.03
2023-04-23T14:09:24.810Z,27.10
2023-04-23T14:11:52.782Z,26.85
2023-04-23T14:14:21.367Z,27.29
2023-04-23T14:16:49.315Z,28.15
2023-04-23T14:19:17.495Z,28.41
2023-04-23T14:21:45.367Z,28.64
2023-04-23T14:24:29.410Z,29.17
2023-04-23T14:26:57.677Z,29.42
2023-04-23T14:29:36.100Z,29.62
2023-04-23T14:32:04.377Z,30.08
2023-04-23T14:34:32.501Z,30.35
2023-04-23T14:37:00.609Z,29.88
2023-04-23T14:39:29.628Z,30.01
2023-04-23T14:41:57.671Z,30.55
2023-04-23T14:44:28.520Z,30.81
2023-04-23T14:46:56.523Z,30.91
2023-04-23T14:49:24.839Z,31.04
2023-04-23T14:51:57.917Z,31.02
2023-04-23T14:54:25.917Z,30.97
2023-04-23T14:56:53.884Z,31.21
2023-04-23T14:59:22.084Z,31.34
2023-04-23T15:01:50.576Z,30.85
2023-04-23T15:04:19.229Z,30.75
2023-04-23T15:06:47.499Z,30.48
2023-04-23T15:09:15.877Z,29.97
2023-04-23T15:11:43.840Z,30.69
2023-04-23T15:14:30.750Z,31.31
2023-04-23T15:16:59.085Z,31.57
2023-04-23T15:19:27.088Z,31.61
2023-04-23T15:21:55.080Z,31.63
2023-04-23T15:24:22.934Z,31.82
2023-04-23T15:26:53.476Z,31.90
2023-04-23T15:29:21.890Z,31.88
2023-04-23T15:31:51.943Z,31.51
2023-04-23T15:34:19.926Z,31.87
2023-04-23T15:36:47.910Z,32.16
2023-04-23T15:39:15.871Z,31.80
2023-04-23T15:41:45.996Z,31.81
2023-04-23T15:44:14.367Z,32.08
2023-04-23T15:46:42.499Z,32.83
2023-04-23T15:49:10.863Z,33.08
2023-04-23T15:51:39.092Z,33.25
2023-04-23T15:54:08.901Z,33.03
2023-04-23T15:56:37.348Z,33.11
2023-04-23T15:59:05.660Z,33.75
2023-04-23T16:01:33.789Z,35.30
2023-04-23T16:04:10.417Z,36.70
2023-04-23T16:06:39.537Z,37.41
2023-04-23T16:11:56.157Z,38.66
2023-04-23T16:14:23.956Z,39.14
2023-04-23T16:16:51.938Z,39.17
2023-04-23T16:19:20.732Z,39.22
2023-04-23T16:21:49.631Z,39.39
2023-04-23T16:24:17.581Z,39.44
2023-04-23T16:26:45.559Z,39.68
2023-04-23T16:31:45.379Z,39.92
2023-04-23T16:34:13.368Z,40.00
2023-04-23T16:36:41.419Z,39.98
2023-04-23T16:39:09.331Z,40.17
2023-04-23T16:41:37.386Z,40.40
2023-04-23T16:44:05.484Z,40.78
2023-04-23T16:46:33.659Z,41.12
2023-04-23T16:49:01.779Z,42.48
2023-04-23T16:51:30.013Z,42.60
2023-04-23T16:53:58.642Z,43.36
2023-04-23T16:56:26.710Z,44.82
2023-04-23T16:58:54.695Z,45.27
2023-04-23T17:01:22.675Z,44.69
2023-04-23T17:03:51.139Z,45.14
2023-04-23T17:06:24.841Z,46.32
2023-04-23T17:08:53.012Z,47.42
2023-04-23T17:11:21.815Z,48.19
2023-04-23T17:13:49.856Z,48.92
2023-04-23T17:16:21.143Z,49.77
2023-04-23T17:18:49.157Z,49.76
2023-04-23T17:21:17.157Z,49.73
2023-04-23T17:23:45.824Z,49.79
2023-04-23T17:26:13.729Z,50.18
2023-04-23T17:28:41.624Z,49.71
2023-04-23T17:31:09.902Z,49.17
2023-04-23T17:33:38.813Z,49.38
2023-04-23T17:36:33.080Z,49.34
2023-04-23T17:39:01.287Z,49.29
2023-04-23T17:41:29.257Z,49.20
2023-04-23T17:43:57.425Z,49.10
2023-04-23T17:46:25.516Z,49.93
2023-04-23T17:48:53.574Z,50.28
2023-04-23T17:51:21.751Z,50.23
2023-04-23T17:53:50.906Z,50.21
2023-04-23T17:56:18.762Z,50.38
2023-04-23T17:58:47.188Z,50.20
2023-04-23T18:01:16.938Z,50.09
2023-04-23T18:03:45.140Z,50.32
2023-04-23T18:06:13.644Z,51.19
2023-04-23T18:08:42.738Z,52.00
2023-04-23T18:11:10.914Z,52.09
2023-04-23T18:13:39.192Z,51.72
2023-04-23T18:16:07.249Z,52.05
2023-04-23T18:18:35.190Z,51.83
2023-04-23T18:21:04.725Z,52.03
2023-04-23T18:23:33.492Z,52.01
2023-04-23T18:26:02.049Z,51.81
2023-04-23T18:28:30.120Z,51.90
2023-04-23T18:31:02.746Z,52.08
2023-04-23T18:33:36.177Z,52.14
2023-04-23T18:36:20.493Z,52.03
2023-04-23T18:38:49.569Z,52.40
2023-04-23T18:41:17.558Z,52.73
2023-04-23T18:43:45.420Z,52.70
2023-04-23T18:46:13.579Z,52.43
2023-04-23T18:48:59.010Z,52.23
2023-04-23T18:51:33.334Z,52.57
2023-04-23T18:54:01.972Z,52.24
2023-04-23T18:56:30.428Z,52.53
2023-04-23T18:58:58.223Z,52.88
2023-04-23T19:01:28.075Z,52.83
2023-04-23T19:03:57.469Z,52.98
2023-04-23T19:06:26.833Z,53.46
2023-04-23T19:08:54.805Z,56.06
2023-04-23T19:11:22.668Z,56.45
2023-04-23T19:13:50.570Z,55.79
2023-04-23T19:16:18.727Z,55.64
2023-04-23T19:18:46.697Z,55.08
2023-04-23T19:21:14.652Z,54.79
2023-04-23T19:23:42.760Z,54.97
2023-04-23T19:26:11.555Z,55.24
2023-04-23T19:28:40.258Z,55.19
2023-04-23T19:31:08.190Z,55.33
2023-04-23T19:33:36.114Z,55.33
2023-04-23T19:36:04.602Z,55.93
2023-04-23T19:38:32.597Z,55.81
2023-04-23T19:41:00.666Z,55.65
2023-04-23T19:43:28.807Z,55.55
2023-04-23T19:45:56.984Z,56.03
2023-04-23T19:48:26.079Z,56.44
2023-04-23T19:50:54.860Z,57.58
2023-04-23T19:53:22.751Z,58.08
2023-04-23T19:55:50.806Z,58.67
2023-04-23T19:58:18.919Z,58.73
2023-04-23T20:00:47.214Z,59.44
2023-04-23T20:03:15.654Z,59.85
2023-04-23T20:05:44.915Z,59.56
2023-04-23T20:08:25.565Z,59.30
2023-04-23T20:10:53.914Z,59.63
2023-04-23T20:13:21.858Z,59.72
2023-04-23T20:15:50.241Z,59.50
2023-04-23T20:18:18.504Z,59.55
2023-04-23T20:20:46.313Z,59.67
2023-04-23T20:23:14.227Z,59.42
2023-04-23T20:25:42.154Z,59.24
2023-04-23T20:28:10.429Z,59.03
2023-04-23T20:30:38.322Z,58.71
2023-04-23T20:33:07.282Z,58.50
2023-04-23T20:35:35.596Z,58.56
2023-04-23T20:38:03.772Z,58.30
2023-04-23T20:40:34.716Z,58.65
2023-04-23T20:43:04.636Z,58.71
2023-04-23T20:45:34.289Z,58.72
2023-04-23T20:48:02.842Z,58.86
2023-04-23T20:50:31.311Z,58.70
2023-04-23T20:52:59.323Z,59.10
2023-04-23T20:55:27.436Z,58.92
2023-04-23T20:57:55.495Z,58.96
2023-04-23T21:00:24.509Z,58.74
2023-04-23T21:02:53.964Z,58.67
2023-04-23T21:05:22.096Z,58.76
2023-04-23T21:07:50.977Z,58.71
2023-04-23T21:10:19.036Z,59.34
2023-04-23T21:12:47.316Z,58.87
2023-04-23T21:15:15.642Z,58.79
2023-04-23T21:17:43.526Z,58.57
2023-04-23T21:20:11.632Z,58.85
2023-04-23T21:22:39.634Z,58.77
2023-04-23T21:25:08.084Z,58.89
2023-04-23T21:27:36.055Z,58.73
2023-04-23T21:30:12.411Z,58.99
2023-04-23T21:32:40.397Z,59.34
2023-04-23T21:35:08.548Z,59.29
2023-04-23T21:37:38.171Z,59.18
2023-04-23T21:40:07.425Z,59.01
2023-04-23T21:42:35.853Z,59.52
2023-04-23T21:45:04.095Z,59.55
2023-04-23T21:47:31.959Z,59.38
2023-04-23T21:50:01.688Z,60.60
2023-04-23T21:52:30.314Z,60.17
2023-04-23T21:54:58.337Z,60.15
2023-04-23T21:57:26.303Z,59.81
2023-04-23T21:59:54.446Z,59.72
2023-04-23T22:02:22.761Z,59.70
2023-04-23T22:04:51.120Z,60.47
2023-04-23T22:07:19.714Z,60.87
2023-04-23T22:09:47.677Z,60.74
2023-04-23T22:12:15.548Z,60.52
2023-04-23T22:14:43.413Z,60.79
2023-04-23T22:17:11.785Z,60.31
2023-04-23T22:19:39.974Z,60.52
2023-04-23T22:22:07.917Z,60.62
2023-04-23T22:24:36.105Z,60.56
2023-04-23T22:27:04.177Z,60.20
2023-04-23T22:29:32.070Z,60.52
2023-04-23T22:31:59.950Z,62.14
2023-04-23T22:34:28.063Z,62.52
2023-04-23T22:36:56.150Z,62.68
2023-04-23T22:39:24.541Z,62.23
2023-04-23T22:41:52.383Z,61.93
2023-04-23T22:44:20.364Z,61.90
2023-04-23T22:46:48.440Z,62.39
2023-04-23T22:49:18.455Z,62.56
2023-04-23T22:51:46.396Z,62.44
2023-04-23T22:54:14.256Z,62.29
2023-04-23T22:56:42.342Z,62.70
2023-04-23T22:59:13.174Z,63.57
2023-04-23T23:01:41.419Z,64.41
2023-04-23T23:04:09.584Z,63.74
2023-04-23T23:06:37.513Z,63.44
2023-04-23T23:09:05.683Z,63.48
2023-04-23T23:11:33.736Z,63.55
2023-04-23T23:14:02.429Z,64.03
2023-04-23T23:16:30.936Z,63.86
2023-04-23T23:18:58.880Z,63.94
2023-04-23T23:21:26.947Z,63.92
2023-04-23T23:23:55.121Z,64.14
2023-04-23T23:26:23.111Z,65.55
2023-04-23T23:28:52.194Z,66.89
2023-04-23T23:31:21.969Z,66.96
2023-04-23T23:33:50.164Z,66.37
2023-04-23T23:36:18.746Z,65.97
2023-04-23T23:38:46.714Z,65.38
2023-04-23T23:41:14.892Z,65.51
2023-04-23T23:43:42.864Z,65.73
2023-04-23T23:46:10.878Z,65.67
2023-04-23T23:48:38.899Z,65.93
2023-04-23T23:51:06.771Z,65.64
2023-04-23T23:53:34.750Z,65.54
2023-04-23T23:56:02.805Z,67.04
2023-04-23T23:58:31.083Z,67.49
